Piedre Park, Colorado
Current Conditions -  °F | °C
As of 6:15 PM on Sunday 21 Dec 2014 (Local Time) from KPSO Reporting Station
Light Snow Light Snow  
Wind Chill: 30°   Ceiling: 2600
Heat Index: 30°   Visibility: 3mi
Dew Point: 29°   Wind: 0mph
Humidity: 97%   Direction: NA
Pressure: 29.95"   Gusts: NA
Location:  37.2292°N, 107.329°W
Report Text: KPSO 220115Z AUTO 00000KT 3SM -SN OVC026 M01/M01 A2995 RMK AO2 T10101014
Loading
Personal Weather Stations






























Interactive Weather Map New forecast layout! Learn more

10-Day Weather Forecast

Advertisements
Track Severe Weather on mobile